»·PEaware :: N2494V KGCN-KPHX

N2494V :: KGCN-KPHX

FLIGHT INFORMATION

Flight Status: Arrived
Operator: Privately registered:
United States
More flights under this callsign
Pilot: Sally S. (18014)
Aircraft: Unknown
(DA62)
More flights by this aircraft type
Origin: KGCN Grand Canyon Natl Park
United States
Destination: KPHX Phoenix Sky Harbor Intl
United States
More flights between these airports :: More routes between these airports
Route: BISOP V257 AVENT
File this flight plan on PilotEdge
Remarks:
Altitude:
(Current/Filed)
11,000ft
Speed:
(Current/Filed)
160kts
Departed: 12-Apr-18 12:53 PM
Arrived: 12-Apr-18 02:08 PM
Distance/Time
Traveled:
152nm/1:15
Distance/Time
To Go:
Arrived

Flight Plot

Page will automatically refresh every two minutes.

Flight plan parsing failed; only flown route is shown


Map Options




Map Legend


Flown Route
Filed Route
Departure Airport
Arrival Airport
Navaid (VOR, NDB)
Fix

Horizontal Profiles

Position Reports

Time Latitude Longitude Heading Altitude Ground
Speed
12-Apr-18 12:24 35.961880 -112.134386 220 6608ft 0kts
12-Apr-18 12:25 35.961880 -112.134386 220 6608ft 0kts
12-Apr-18 12:26 35.961880 -112.134386 220 6608ft 0kts
12-Apr-18 12:27 35.961880 -112.134386 220 6608ft 0kts
12-Apr-18 12:28 35.961880 -112.134386 220 6608ft 0kts
12-Apr-18 12:29 35.961880 -112.134386 220 6608ft 0kts
12-Apr-18 12:30 35.961880 -112.134386 220 6608ft 0kts
12-Apr-18 12:31 35.961880 -112.134386 220 6608ft 0kts
12-Apr-18 12:32 35.961880 -112.134386 220 6608ft 0kts
12-Apr-18 12:33 35.961880 -112.134386 220 6608ft 0kts
12-Apr-18 12:34 35.961880 -112.134386 220 6608ft 0kts
12-Apr-18 12:35 35.961880 -112.134386 220 6608ft 0kts
12-Apr-18 12:36 35.961880 -112.134386 220 6608ft 0kts
12-Apr-18 12:37 35.961880 -112.134386 220 6608ft 0kts
12-Apr-18 12:38 35.961880 -112.134386 220 6608ft 0kts
12-Apr-18 12:39 35.961880 -112.134386 220 6608ft 0kts
12-Apr-18 12:40 35.961880 -112.134386 220 6608ft 0kts
12-Apr-18 12:41 35.961880 -112.134386 220 6608ft 0kts
12-Apr-18 12:47 35.961880 -112.134386 220 6608ft 0kts
12-Apr-18 12:48 35.961880 -112.134386 220 6608ft 0kts
12-Apr-18 12:49 35.961875 -112.134394 231 6608ft 1kts
12-Apr-18 12:50 35.961408 -112.135974 299 6608ft 0kts
12-Apr-18 12:51 35.961409 -112.135974 297 6608ft 0kts
12-Apr-18 12:52 35.959474 -112.139457 221 6608ft 59kts
12-Apr-18 12:53 35.944338 -112.155334 229 7298ft 70kts
12-Apr-18 12:54 35.924281 -112.161730 190 8026ft 87kts
12-Apr-18 12:55 35.899036 -112.158252 190 8643ft 93kts
12-Apr-18 12:56 35.872702 -112.153202 187 9242ft 96kts
12-Apr-18 12:57 35.846107 -112.146455 183 9794ft 97kts
12-Apr-18 12:58 35.825234 -112.141790 207 9936ft 87kts
12-Apr-18 12:59 35.809404 -112.161600 234 9992ft 85kts
12-Apr-18 13:00 35.795810 -112.183217 234 10263ft 74kts
12-Apr-18 13:01 35.782637 -112.202978 234 10668ft 74kts
12-Apr-18 13:02 35.769060 -112.223081 234 11004ft 85kts
12-Apr-18 13:03 35.752807 -112.247489 233 11000ft 96kts
12-Apr-18 13:04 35.734827 -112.272296 232 10936ft 106kts
12-Apr-18 13:05 35.712080 -112.302984 229 11002ft 133kts
12-Apr-18 13:06 35.684345 -112.335315 226 10999ft 140kts
12-Apr-18 13:07 35.654428 -112.368551 226 10999ft 148kts
12-Apr-18 13:08 35.619770 -112.397092 216 11001ft 152kts
12-Apr-18 13:09 35.582928 -112.422621 202 10996ft 158kts
12-Apr-18 13:10 35.537816 -112.426618 192 11004ft 163kts
12-Apr-18 13:11 35.492548 -112.429450 193 11005ft 163kts
12-Apr-18 13:12 35.447167 -112.432344 192 10996ft 163kts
12-Apr-18 13:13 35.401720 -112.435267 193 10996ft 163kts
12-Apr-18 13:14 35.356564 -112.438188 193 10996ft 163kts
12-Apr-18 13:15 35.311318 -112.441099 192 10996ft 163kts
12-Apr-18 13:16 35.266462 -112.444207 198 10991ft 160kts
12-Apr-18 13:17 35.220232 -112.436765 181 10995ft 170kts
12-Apr-18 13:18 35.182062 -112.433304 194 10995ft 162kts
12-Apr-18 13:19 35.137445 -112.437464 194 10999ft 162kts
12-Apr-18 13:20 35.092645 -112.441783 194 11003ft 162kts
12-Apr-18 13:21 35.047775 -112.446155 194 10999ft 162kts
12-Apr-18 13:22 35.002961 -112.450521 194 11002ft 161kts
12-Apr-18 13:23 34.958852 -112.455223 195 11005ft 158kts
12-Apr-18 13:24 34.908431 -112.460128 195 11008ft 155kts
12-Apr-18 13:25 34.875006 -112.463383 195 11017ft 153kts
12-Apr-18 13:26 34.832599 -112.467529 195 11016ft 153kts
12-Apr-18 13:27 34.790392 -112.471643 195 11016ft 153kts
12-Apr-18 13:28 34.748238 -112.475758 195 11016ft 153kts
12-Apr-18 13:29 34.705635 -112.478359 178 11004ft 164kts
12-Apr-18 13:30 34.666197 -112.444600 156 11015ft 180kts
12-Apr-18 13:31 34.627591 -112.406870 154 11015ft 181kts
12-Apr-18 13:32 34.588674 -112.368492 155 11015ft 182kts
12-Apr-18 13:33 34.549454 -112.329928 154 11016ft 181kts
12-Apr-18 13:34 34.510298 -112.291500 154 11016ft 181kts
12-Apr-18 13:35 34.470915 -112.252923 154 11015ft 182kts
12-Apr-18 13:36 34.430198 -112.223927 183 11017ft 160kts
12-Apr-18 13:37 34.386332 -112.214770 180 11015ft 162kts
12-Apr-18 13:38 34.342203 -112.203205 180 11015ft 162kts
12-Apr-18 13:39 34.298171 -112.191775 180 11015ft 162kts
12-Apr-18 13:40 34.254217 -112.180323 180 11015ft 162kts
12-Apr-18 13:41 34.210055 -112.168902 180 11005ft 163kts
12-Apr-18 13:42 34.165811 -112.157475 180 10987ft 163kts
12-Apr-18 13:43 34.121693 -112.146099 180 10969ft 162kts
12-Apr-18 13:44 34.077660 -112.134758 180 10951ft 162kts
12-Apr-18 13:45 34.033549 -112.123396 180 10950ft 162kts
12-Apr-18 13:46 33.989731 -112.112139 180 10949ft 161kts
12-Apr-18 13:47 33.945944 -112.100893 180 10949ft 161kts
12-Apr-18 13:48 33.902226 -112.089714 180 10948ft 161kts
12-Apr-18 13:49 33.859326 -112.078757 180 10956ft 162kts
12-Apr-18 13:50 33.815740 -112.067595 180 10957ft 163kts
12-Apr-18 13:51 33.771992 -112.056410 180 10958ft 163kts
12-Apr-18 13:52 33.728063 -112.045161 180 10930ft 157kts
12-Apr-18 13:53 33.684106 -112.034570 180 9881ft 165kts
12-Apr-18 13:54 33.640020 -112.026939 184 8925ft 161kts
12-Apr-18 13:55 33.598437 -112.021956 183 7967ft 159kts
12-Apr-18 13:56 33.572761 -112.019220 182 7255ft 162kts
12-Apr-18 13:57 33.543098 -112.007857 170 6248ft 171kts
12-Apr-18 13:58 33.515706 -111.996015 170 6019ft 150kts
12-Apr-18 13:59 33.488199 -111.984236 171 6011ft 155kts
12-Apr-18 14:00 33.461458 -111.972983 170 5879ft 143kts
12-Apr-18 14:01 33.438409 -111.969321 191 5320ft 111kts
12-Apr-18 14:02 33.420976 -111.958499 103 4263ft 167kts
12-Apr-18 14:03 33.424562 -111.925376 72 3642ft 125kts
12-Apr-18 14:04 33.429249 -111.937204 263 2638ft 99kts
12-Apr-18 14:05 33.428922 -111.963393 265 1998ft 95kts
12-Apr-18 14:06 33.428950 -111.989238 263 1404ft 77kts
12-Apr-18 14:07 33.428752 -112.009885 265 1138ft 35kts
12-Apr-18 14:08 33.427675 -112.012822 263 1138ft 18kts
12-Apr-18 14:09 33.427635 -112.017854 278 1138ft 29kts
12-Apr-18 14:10 33.427034 -112.024663 154 1138ft 13kts

Navigation Log

Ident Type
Flight plan parsing failed, navigation log unavailable